sensor_id;sensor_type;location;lat;lon;timestamp;temperature;humidity
22526;DHT22;11429;50.842;4.386;2022-08-01T00:01:05;22.10;99.90
22526;DHT22;11429;50.842;4.386;2022-08-01T00:03:31;21.90;99.90
22526;DHT22;11429;50.842;4.386;2022-08-01T00:05:56;21.90;99.90
22526;DHT22;11429;50.842;4.386;2022-08-01T00:08:22;22.00;99.90
22526;DHT22;11429;50.842;4.386;2022-08-01T00:10:48;22.20;99.90
22526;DHT22;11429;50.842;4.386;2022-08-01T00:13:13;22.00;99.90
22526;DHT22;11429;50.842;4.386;2022-08-01T00:15:39;22.00;99.90
22526;DHT22;11429;50.842;4.386;2022-08-01T00:18:05;22.00;99.90
22526;DHT22;11429;50.842;4.386;2022-08-01T00:20:30;21.80;99.90
22526;DHT22;11429;50.842;4.386;2022-08-01T00:22:56;21.90;99.90
22526;DHT22;11429;50.842;4.386;2022-08-01T00:25:21;22.00;99.90
22526;DHT22;11429;50.842;4.386;2022-08-01T00:27:47;22.10;99.90
22526;DHT22;11429;50.842;4.386;2022-08-01T00:30:13;22.00;99.90
22526;DHT22;11429;50.842;4.386;2022-08-01T00:32:38;21.90;99.90
22526;DHT22;11429;50.842;4.386;2022-08-01T00:35:04;21.70;99.90
22526;DHT22;11429;50.842;4.386;2022-08-01T00:37:30;21.70;99.90
22526;DHT22;11429;50.842;4.386;2022-08-01T00:39:56;21.80;99.90
22526;DHT22;11429;50.842;4.386;2022-08-01T00:42:21;21.90;99.90
22526;DHT22;11429;50.842;4.386;2022-08-01T00:44:47;21.70;99.90
22526;DHT22;11429;50.842;4.386;2022-08-01T00:47:13;21.60;99.90
22526;DHT22;11429;50.842;4.386;2022-08-01T00:49:39;21.50;99.90
22526;DHT22;11429;50.842;4.386;2022-08-01T00:52:05;21.50;99.90
22526;DHT22;11429;50.842;4.386;2022-08-01T00:54:31;21.50;99.90
22526;DHT22;11429;50.842;4.386;2022-08-01T00:56:58;21.40;99.90
22526;DHT22;11429;50.842;4.386;2022-08-01T00:59:24;21.50;99.90
22526;DHT22;11429;50.842;4.386;2022-08-01T01:01:50;21.50;99.90
22526;DHT22;11429;50.842;4.386;2022-08-01T01:04:16;21.60;99.90
22526;DHT22;11429;50.842;4.386;2022-08-01T01:06:51;21.70;99.90
22526;DHT22;11429;50.842;4.386;2022-08-01T01:09:42;21.70;99.90
22526;DHT22;11429;50.842;4.386;2022-08-01T01:12:30;21.70;99.90
22526;DHT22;11429;50.842;4.386;2022-08-01T01:17:32;21.50;99.90
22526;DHT22;11429;50.842;4.386;2022-08-01T01:20:01;21.60;99.90
22526;DHT22;11429;50.842;4.386;2022-08-01T01:26:03;21.60;99.90
22526;DHT22;11429;50.842;4.386;2022-08-01T01:28:40;21.50;99.90
22526;DHT22;11429;50.842;4.386;2022-08-01T01:31:10;21.50;99.90
22526;DHT22;11429;50.842;4.386;2022-08-01T01:33:37;21.50;99.90
22526;DHT22;11429;50.842;4.386;2022-08-01T01:36:08;21.40;99.90
22526;DHT22;11429;50.842;4.386;2022-08-01T01:38:39;21.30;99.90
22526;DHT22;11429;50.842;4.386;2022-08-01T01:41:08;21.30;99.90
22526;DHT22;11429;50.842;4.386;2022-08-01T01:43:35;21.30;99.90
22526;DHT22;11429;50.842;4.386;2022-08-01T01:46:03;21.30;99.90
22526;DHT22;11429;50.842;4.386;2022-08-01T01:48:30;21.40;99.90
22526;DHT22;11429;50.842;4.386;2022-08-01T01:50:57;21.40;99.90
22526;DHT22;11429;50.842;4.386;2022-08-01T01:53:23;21.30;99.90
22526;DHT22;11429;50.842;4.386;2022-08-01T01:55:52;21.20;99.90
22526;DHT22;11429;50.842;4.386;2022-08-01T01:58:19;21.20;99.90
22526;DHT22;11429;50.842;4.386;2022-08-01T02:00:47;21.00;99.90
22526;DHT22;11429;50.842;4.386;2022-08-01T02:03:14;20.90;99.90
22526;DHT22;11429;50.842;4.386;2022-08-01T02:05:42;21.00;99.90
22526;DHT22;11429;50.842;4.386;2022-08-01T02:08:10;21.00;99.90
22526;DHT22;11429;50.842;4.386;2022-08-01T02:10:37;21.00;99.90
22526;DHT22;11429;50.842;4.386;2022-08-01T02:13:04;21.00;99.90
22526;DHT22;11429;50.842;4.386;2022-08-01T02:15:33;21.30;99.90
22526;DHT22;11429;50.842;4.386;2022-08-01T02:18:01;21.30;99.90
22526;DHT22;11429;50.842;4.386;2022-08-01T02:20:29;21.10;99.90
22526;DHT22;11429;50.842;4.386;2022-08-01T02:23:13;21.20;99.90
22526;DHT22;11429;50.842;4.386;2022-08-01T02:25:46;21.20;99.90
22526;DHT22;11429;50.842;4.386;2022-08-01T02:28:25;21.30;99.90
22526;DHT22;11429;50.842;4.386;2022-08-01T02:30:58;21.30;99.90
22526;DHT22;11429;50.842;4.386;2022-08-01T02:33:33;21.20;99.90
22526;DHT22;11429;50.842;4.386;2022-08-01T02:36:03;21.10;99.90
22526;DHT22;11429;50.842;4.386;2022-08-01T02:38:31;20.90;99.90
22526;DHT22;11429;50.842;4.386;2022-08-01T02:41:00;20.80;99.90
22526;DHT22;11429;50.842;4.386;2022-08-01T02:43:29;20.90;99.90
22526;DHT22;11429;50.842;4.386;2022-08-01T02:46:00;20.80;99.90
22526;DHT22;11429;50.842;4.386;2022-08-01T02:48:27;20.80;99.90
22526;DHT22;11429;50.842;4.386;2022-08-01T02:50:57;20.70;99.90
22526;DHT22;11429;50.842;4.386;2022-08-01T02:53:24;20.80;99.90
22526;DHT22;11429;50.842;4.386;2022-08-01T02:55:53;20.90;99.90
22526;DHT22;11429;50.842;4.386;2022-08-01T02:58:21;20.70;99.90
22526;DHT22;11429;50.842;4.386;2022-08-01T03:00:49;20.60;99.90
22526;DHT22;11429;50.842;4.386;2022-08-01T03:03:16;20.70;99.90
22526;DHT22;11429;50.842;4.386;2022-08-01T03:05:43;20.70;99.90
22526;DHT22;11429;50.842;4.386;2022-08-01T03:08:10;20.80;99.90
22526;DHT22;11429;50.842;4.386;2022-08-01T03:10:38;20.80;99.90
22526;DHT22;11429;50.842;4.386;2022-08-01T03:13:06;20.90;99.90
22526;DHT22;11429;50.842;4.386;2022-08-01T03:15:36;20.70;99.90
22526;DHT22;11429;50.842;4.386;2022-08-01T03:18:05;20.70;99.90
22526;DHT22;11429;50.842;4.386;2022-08-01T03:20:32;20.80;99.90
22526;DHT22;11429;50.842;4.386;2022-08-01T03:23:05;20.90;99.90
22526;DHT22;11429;50.842;4.386;2022-08-01T03:25:32;20.80;99.90
22526;DHT22;11429;50.842;4.386;2022-08-01T03:28:02;20.80;99.90
22526;DHT22;11429;50.842;4.386;2022-08-01T03:30:29;20.70;99.90
22526;DHT22;11429;50.842;4.386;2022-08-01T03:32:56;20.90;99.90
22526;DHT22;11429;50.842;4.386;2022-08-01T03:35:25;20.80;99.90
22526;DHT22;11429;50.842;4.386;2022-08-01T03:37:54;20.70;99.90
22526;DHT22;11429;50.842;4.386;2022-08-01T03:40:24;20.70;99.90
22526;DHT22;11429;50.842;4.386;2022-08-01T03:42:55;20.70;99.90
22526;DHT22;11429;50.842;4.386;2022-08-01T03:45:25;20.90;99.90
22526;DHT22;11429;50.842;4.386;2022-08-01T03:47:58;20.90;99.90
22526;DHT22;11429;50.842;4.386;2022-08-01T03:50:25;21.10;99.90
22526;DHT22;11429;50.842;4.386;2022-08-01T03:52:54;20.90;99.90
22526;DHT22;11429;50.842;4.386;2022-08-01T03:55:23;20.60;99.90
22526;DHT22;11429;50.842;4.386;2022-08-01T03:57:50;20.40;99.90
22526;DHT22;11429;50.842;4.386;2022-08-01T04:00:17;20.30;99.90
22526;DHT22;11429;50.842;4.386;2022-08-01T04:02:48;20.30;99.90
22526;DHT22;11429;50.842;4.386;2022-08-01T04:05:15;20.10;99.90
22526;DHT22;11429;50.842;4.386;2022-08-01T04:07:45;20.20;99.90
22526;DHT22;11429;50.842;4.386;2022-08-01T04:10:12;20.10;99.90
22526;DHT22;11429;50.842;4.386;2022-08-01T04:12:38;20.10;99.90
22526;DHT22;11429;50.842;4.386;2022-08-01T04:15:04;20.00;99.90
22526;DHT22;11429;50.842;4.386;2022-08-01T04:17:31;19.80;99.90
22526;DHT22;11429;50.842;4.386;2022-08-01T04:19:56;19.90;99.90
22526;DHT22;11429;50.842;4.386;2022-08-01T04:22:22;19.70;99.90
22526;DHT22;11429;50.842;4.386;2022-08-01T04:24:50;19.80;99.90
22526;DHT22;11429;50.842;4.386;2022-08-01T04:27:24;19.70;99.90
22526;DHT22;11429;50.842;4.386;2022-08-01T04:29:56;19.80;99.90
22526;DHT22;11429;50.842;4.386;2022-08-01T04:32:25;19.90;99.90
22526;DHT22;11429;50.842;4.386;2022-08-01T04:34:53;19.70;99.90
22526;DHT22;11429;50.842;4.386;2022-08-01T04:37:22;20.00;99.90
22526;DHT22;11429;50.842;4.386;2022-08-01T04:39:50;20.20;99.90
22526;DHT22;11429;50.842;4.386;2022-08-01T04:42:16;20.20;99.90
22526;DHT22;11429;50.842;4.386;2022-08-01T04:44:42;20.00;99.90
22526;DHT22;11429;50.842;4.386;2022-08-01T04:47:09;19.80;99.90
22526;DHT22;11429;50.842;4.386;2022-08-01T04:49:35;19.80;99.90
22526;DHT22;11429;50.842;4.386;2022-08-01T04:52:01;19.90;99.90
22526;DHT22;11429;50.842;4.386;2022-08-01T04:54:27;19.80;99.90
22526;DHT22;11429;50.842;4.386;2022-08-01T04:56:54;19.80;99.90
22526;DHT22;11429;50.842;4.386;2022-08-01T04:59:32;19.90;99.90
22526;DHT22;11429;50.842;4.386;2022-08-01T05:02:05;19.80;99.90
22526;DHT22;11429;50.842;4.386;2022-08-01T05:04:30;19.70;99.90
22526;DHT22;11429;50.842;4.386;2022-08-01T05:06:56;19.90;99.90
22526;DHT22;11429;50.842;4.386;2022-08-01T05:09:22;20.20;99.90
22526;DHT22;11429;50.842;4.386;2022-08-01T05:11:47;20.40;99.90
22526;DHT22;11429;50.842;4.386;2022-08-01T05:14:13;20.10;99.90
22526;DHT22;11429;50.842;4.386;2022-08-01T05:16:39;19.90;99.90
22526;DHT22;11429;50.842;4.386;2022-08-01T05:19:04;19.70;99.90
22526;DHT22;11429;50.842;4.386;2022-08-01T05:21:30;19.80;99.90
22526;DHT22;11429;50.842;4.386;2022-08-01T05:23:55;20.20;99.90
22526;DHT22;11429;50.842;4.386;2022-08-01T05:26:21;20.10;99.90
22526;DHT22;11429;50.842;4.386;2022-08-01T05:28:48;19.80;99.90
22526;DHT22;11429;50.842;4.386;2022-08-01T05:31:13;19.80;99.90
22526;DHT22;11429;50.842;4.386;2022-08-01T05:33:39;19.70;99.90
22526;DHT22;11429;50.842;4.386;2022-08-01T05:36:05;19.70;99.90
22526;DHT22;11429;50.842;4.386;2022-08-01T05:38:30;19.70;99.90
22526;DHT22;11429;50.842;4.386;2022-08-01T05:40:56;19.60;99.90
22526;DHT22;11429;50.842;4.386;2022-08-01T05:43:22;19.60;99.90
22526;DHT22;11429;50.842;4.386;2022-08-01T05:45:47;19.60;99.90
22526;DHT22;11429;50.842;4.386;2022-08-01T05:48:13;19.60;99.90
22526;DHT22;11429;50.842;4.386;2022-08-01T05:50:39;19.60;99.90
22526;DHT22;11429;50.842;4.386;2022-08-01T05:53:04;19.80;99.90
22526;DHT22;11429;50.842;4.386;2022-08-01T05:55:30;19.90;99.90
22526;DHT22;11429;50.842;4.386;2022-08-01T05:57:56;19.80;99.90
22526;DHT22;11429;50.842;4.386;2022-08-01T06:00:21;20.00;99.90
22526;DHT22;11429;50.842;4.386;2022-08-01T06:02:47;19.90;99.90
22526;DHT22;11429;50.842;4.386;2022-08-01T06:05:13;19.90;99.90
22526;DHT22;11429;50.842;4.386;2022-08-01T06:07:38;19.90;99.90
22526;DHT22;11429;50.842;4.386;2022-08-01T06:10:05;19.90;99.90
22526;DHT22;11429;50.842;4.386;2022-08-01T06:12:35;20.00;99.90
22526;DHT22;11429;50.842;4.386;2022-08-01T06:15:01;20.20;99.90
22526;DHT22;11429;50.842;4.386;2022-08-01T06:17:27;20.30;99.90
22526;DHT22;11429;50.842;4.386;2022-08-01T06:19:53;20.50;99.90
22526;DHT22;11429;50.842;4.386;2022-08-01T06:22:18;20.60;99.90
22526;DHT22;11429;50.842;4.386;2022-08-01T06:24:44;20.90;99.90
22526;DHT22;11429;50.842;4.386;2022-08-01T06:27:10;21.10;99.90
22526;DHT22;11429;50.842;4.386;2022-08-01T06:29:35;20.70;99.90
22526;DHT22;11429;50.842;4.386;2022-08-01T06:32:01;20.50;99.90
22526;DHT22;11429;50.842;4.386;2022-08-01T06:34:27;20.50;99.90
22526;DHT22;11429;50.842;4.386;2022-08-01T06:36:52;20.60;99.90
22526;DHT22;11429;50.842;4.386;2022-08-01T06:39:18;20.90;99.90
22526;DHT22;11429;50.842;4.386;2022-08-01T06:41:44;21.30;99.90
22526;DHT22;11429;50.842;4.386;2022-08-01T06:44:12;21.30;99.90
22526;DHT22;11429;50.842;4.386;2022-08-01T06:46:38;21.30;99.90
22526;DHT22;11429;50.842;4.386;2022-08-01T06:49:04;21.50;99.90
22526;DHT22;11429;50.842;4.386;2022-08-01T06:51:30;21.80;99.90
22526;DHT22;11429;50.842;4.386;2022-08-01T06:53:55;22.00;99.90
22526;DHT22;11429;50.842;4.386;2022-08-01T06:56:21;22.30;99.90
22526;DHT22;11429;50.842;4.386;2022-08-01T06:58:48;22.40;99.90
22526;DHT22;11429;50.842;4.386;2022-08-01T07:01:14;22.20;99.90
22526;DHT22;11429;50.842;4.386;2022-08-01T07:03:40;22.40;99.90
22526;DHT22;11429;50.842;4.386;2022-08-01T07:06:05;22.70;99.90
22526;DHT22;11429;50.842;4.386;2022-08-01T07:08:31;22.70;99.90
22526;DHT22;11429;50.842;4.386;2022-08-01T07:10:57;22.30;99.90
22526;DHT22;11429;50.842;4.386;2022-08-01T07:13:28;22.20;99.90
22526;DHT22;11429;50.842;4.386;2022-08-01T07:15:56;22.10;99.90
22526;DHT22;11429;50.842;4.386;2022-08-01T07:18:22;22.10;99.90
22526;DHT22;11429;50.842;4.386;2022-08-01T07:20:48;22.40;99.90
22526;DHT22;11429;50.842;4.386;2022-08-01T07:23:15;22.90;99.90
22526;DHT22;11429;50.842;4.386;2022-08-01T07:25:41;23.40;99.90
22526;DHT22;11429;50.842;4.386;2022-08-01T07:28:07;23.40;99.90
22526;DHT22;11429;50.842;4.386;2022-08-01T07:30:33;23.20;99.90
22526;DHT22;11429;50.842;4.386;2022-08-01T07:32:59;23.30;99.90
22526;DHT22;11429;50.842;4.386;2022-08-01T07:35:25;23.70;99.90
22526;DHT22;11429;50.842;4.386;2022-08-01T07:37:51;23.60;99.90
22526;DHT22;11429;50.842;4.386;2022-08-01T07:40:19;24.10;99.90
22526;DHT22;11429;50.842;4.386;2022-08-01T07:42:45;25.10;99.90
22526;DHT22;11429;50.842;4.386;2022-08-01T07:45:12;26.50;99.90
22526;DHT22;11429;50.842;4.386;2022-08-01T07:47:37;26.60;99.90
22526;DHT22;11429;50.842;4.386;2022-08-01T07:50:04;25.70;99.90
22526;DHT22;11429;50.842;4.386;2022-08-01T07:52:31;24.70;99.90
22526;DHT22;11429;50.842;4.386;2022-08-01T07:54:57;24.30;99.90
22526;DHT22;11429;50.842;4.386;2022-08-01T07:57:24;23.80;99.90
22526;DHT22;11429;50.842;4.386;2022-08-01T07:59:51;23.90;99.90
22526;DHT22;11429;50.842;4.386;2022-08-01T08:02:17;24.50;99.90
22526;DHT22;11429;50.842;4.386;2022-08-01T08:04:43;25.00;99.90
22526;DHT22;11429;50.842;4.386;2022-08-01T08:07:08;25.50;99.90
22526;DHT22;11429;50.842;4.386;2022-08-01T08:09:34;26.00;99.90
22526;DHT22;11429;50.842;4.386;2022-08-01T08:12:00;26.20;99.90
22526;DHT22;11429;50.842;4.386;2022-08-01T08:14:26;25.30;99.90
22526;DHT22;11429;50.842;4.386;2022-08-01T08:16:52;24.80;99.90
22526;DHT22;11429;50.842;4.386;2022-08-01T08:19:17;25.20;99.90
22526;DHT22;11429;50.842;4.386;2022-08-01T08:21:43;25.30;99.90
22526;DHT22;11429;50.842;4.386;2022-08-01T08:24:09;26.20;99.90
22526;DHT22;11429;50.842;4.386;2022-08-01T08:26:45;26.40;99.90
22526;DHT22;11429;50.842;4.386;2022-08-01T08:29:12;27.10;99.90
22526;DHT22;11429;50.842;4.386;2022-08-01T08:31:38;26.70;99.90
22526;DHT22;11429;50.842;4.386;2022-08-01T08:34:04;26.90;99.90
22526;DHT22;11429;50.842;4.386;2022-08-01T08:36:30;26.90;99.90
22526;DHT22;11429;50.842;4.386;2022-08-01T08:38:56;25.20;99.90
22526;DHT22;11429;50.842;4.386;2022-08-01T08:41:24;24.50;99.90
22526;DHT22;11429;50.842;4.386;2022-08-01T08:43:50;24.10;99.90
22526;DHT22;11429;50.842;4.386;2022-08-01T08:46:16;24.20;99.90
22526;DHT22;11429;50.842;4.386;2022-08-01T08:48:43;24.30;99.90
22526;DHT22;11429;50.842;4.386;2022-08-01T08:51:10;24.60;99.90
22526;DHT22;11429;50.842;4.386;2022-08-01T08:53:40;25.30;99.90
22526;DHT22;11429;50.842;4.386;2022-08-01T08:56:11;25.20;99.90
22526;DHT22;11429;50.842;4.386;2022-08-01T08:58:37;25.40;99.90
22526;DHT22;11429;50.842;4.386;2022-08-01T09:01:06;26.40;99.90
22526;DHT22;11429;50.842;4.386;2022-08-01T09:03:34;27.10;99.90
22526;DHT22;11429;50.842;4.386;2022-08-01T09:06:00;27.20;99.90
22526;DHT22;11429;50.842;4.386;2022-08-01T09:08:26;26.40;99.90
22526;DHT22;11429;50.842;4.386;2022-08-01T09:10:51;25.90;99.90
22526;DHT22;11429;50.842;4.386;2022-08-01T09:13:17;26.20;99.90
22526;DHT22;11429;50.842;4.386;2022-08-01T09:15:51;25.90;99.90
22526;DHT22;11429;50.842;4.386;2022-08-01T09:21:14;26.80;99.90
22526;DHT22;11429;50.842;4.386;2022-08-01T09:23:44;26.30;99.90
22526;DHT22;11429;50.842;4.386;2022-08-01T09:26:11;25.70;99.90
22526;DHT22;11429;50.842;4.386;2022-08-01T09:28:38;25.50;99.90
22526;DHT22;11429;50.842;4.386;2022-08-01T09:31:09;25.40;99.90
22526;DHT22;11429;50.842;4.386;2022-08-01T09:33:48;26.10;99.90
22526;DHT22;11429;50.842;4.386;2022-08-01T09:36:14;26.60;99.90
22526;DHT22;11429;50.842;4.386;2022-08-01T09:38:40;26.20;99.90
22526;DHT22;11429;50.842;4.386;2022-08-01T09:41:06;25.70;99.90
22526;DHT22;11429;50.842;4.386;2022-08-01T09:43:32;25.80;99.90
22526;DHT22;11429;50.842;4.386;2022-08-01T09:45:59;27.50;99.90
22526;DHT22;11429;50.842;4.386;2022-08-01T09:48:29;29.60;99.90
22526;DHT22;11429;50.842;4.386;2022-08-01T09:50:55;28.90;99.90
22526;DHT22;11429;50.842;4.386;2022-08-01T09:53:21;27.70;99.90
22526;DHT22;11429;50.842;4.386;2022-08-01T09:55:47;26.90;99.90
22526;DHT22;11429;50.842;4.386;2022-08-01T09:58:16;26.50;99.90
22526;DHT22;11429;50.842;4.386;2022-08-01T10:00:41;26.60;99.90
22526;DHT22;11429;50.842;4.386;2022-08-01T10:03:24;28.80;99.90
22526;DHT22;11429;50.842;4.386;2022-08-01T10:05:50;31.60;99.90
22526;DHT22;11429;50.842;4.386;2022-08-01T10:08:17;32.70;99.90
22526;DHT22;11429;50.842;4.386;2022-08-01T10:11:07;32.80;99.90
22526;DHT22;11429;50.842;4.386;2022-08-01T10:13:34;34.10;99.90
22526;DHT22;11429;50.842;4.386;2022-08-01T10:16:01;34.00;99.90
22526;DHT22;11429;50.842;4.386;2022-08-01T10:18:28;32.30;99.90
22526;DHT22;11429;50.842;4.386;2022-08-01T10:20:56;31.00;99.90
22526;DHT22;11429;50.842;4.386;2022-08-01T10:23:27;30.60;99.90
22526;DHT22;11429;50.842;4.386;2022-08-01T10:25:55;30.60;99.90
22526;DHT22;11429;50.842;4.386;2022-08-01T10:28:23;30.60;99.90
22526;DHT22;11429;50.842;4.386;2022-08-01T10:30:50;29.50;99.90
22526;DHT22;11429;50.842;4.386;2022-08-01T10:33:17;29.30;99.90
22526;DHT22;11429;50.842;4.386;2022-08-01T10:35:45;28.60;99.90
22526;DHT22;11429;50.842;4.386;2022-08-01T10:38:11;28.40;99.90
22526;DHT22;11429;50.842;4.386;2022-08-01T10:40:38;28.00;99.90
22526;DHT22;11429;50.842;4.386;2022-08-01T10:43:05;27.20;99.90
22526;DHT22;11429;50.842;4.386;2022-08-01T10:45:30;27.70;99.90
22526;DHT22;11429;50.842;4.386;2022-08-01T10:50:42;27.10;99.90
22526;DHT22;11429;50.842;4.386;2022-08-01T10:53:26;27.40;99.90
22526;DHT22;11429;50.842;4.386;2022-08-01T10:55:58;27.80;99.90
22526;DHT22;11429;50.842;4.386;2022-08-01T10:58:37;28.00;99.90
22526;DHT22;11429;50.842;4.386;2022-08-01T11:08:54;29.30;99.90
22526;DHT22;11429;50.842;4.386;2022-08-01T11:11:20;29.50;99.90
22526;DHT22;11429;50.842;4.386;2022-08-01T11:14:06;28.50;99.90
22526;DHT22;11429;50.842;4.386;2022-08-01T11:16:41;28.70;99.90
22526;DHT22;11429;50.842;4.386;2022-08-01T11:19:08;29.50;99.90
22526;DHT22;11429;50.842;4.386;2022-08-01T11:27:22;30.40;99.90
22526;DHT22;11429;50.842;4.386;2022-08-01T11:32:56;30.50;99.90
22526;DHT22;11429;50.842;4.386;2022-08-01T11:35:23;30.80;99.90
22526;DHT22;11429;50.842;4.386;2022-08-01T11:37:51;29.90;99.90
22526;DHT22;11429;50.842;4.386;2022-08-01T11:45:55;29.00;99.90
22526;DHT22;11429;50.842;4.386;2022-08-01T11:48:28;28.80;99.90
22526;DHT22;11429;50.842;4.386;2022-08-01T11:50:55;29.30;99.90
22526;DHT22;11429;50.842;4.386;2022-08-01T11:53:22;30.20;99.90
22526;DHT22;11429;50.842;4.386;2022-08-01T11:55:52;29.70;99.90
22526;DHT22;11429;50.842;4.386;2022-08-01T11:58:26;30.20;99.90
22526;DHT22;11429;50.842;4.386;2022-08-01T12:00:57;30.20;99.90
22526;DHT22;11429;50.842;4.386;2022-08-01T12:03:31;29.50;99.90
22526;DHT22;11429;50.842;4.386;2022-08-01T12:06:01;29.80;99.90
22526;DHT22;11429;50.842;4.386;2022-08-01T12:08:29;29.50;99.90
22526;DHT22;11429;50.842;4.386;2022-08-01T12:10:55;29.10;99.90
22526;DHT22;11429;50.842;4.386;2022-08-01T12:13:21;28.50;99.90
22526;DHT22;11429;50.842;4.386;2022-08-01T12:15:48;28.30;99.90
22526;DHT22;11429;50.842;4.386;2022-08-01T12:18:15;28.90;99.90
22526;DHT22;11429;50.842;4.386;2022-08-01T12:20:44;29.10;99.90
22526;DHT22;11429;50.842;4.386;2022-08-01T12:23:12;29.10;99.90
22526;DHT22;11429;50.842;4.386;2022-08-01T12:25:39;29.60;99.90
22526;DHT22;11429;50.842;4.386;2022-08-01T12:28:07;29.10;99.90
22526;DHT22;11429;50.842;4.386;2022-08-01T12:30:35;28.90;99.90
22526;DHT22;11429;50.842;4.386;2022-08-01T12:33:06;29.30;99.90
22526;DHT22;11429;50.842;4.386;2022-08-01T12:35:33;29.00;99.90
22526;DHT22;11429;50.842;4.386;2022-08-01T12:38:01;29.00;99.90
22526;DHT22;11429;50.842;4.386;2022-08-01T12:40:35;29.70;99.90
22526;DHT22;11429;50.842;4.386;2022-08-01T12:43:03;29.10;99.90
22526;DHT22;11429;50.842;4.386;2022-08-01T12:45:45;29.40;99.90
22526;DHT22;11429;50.842;4.386;2022-08-01T12:48:16;29.90;99.90
22526;DHT22;11429;50.842;4.386;2022-08-01T12:50:49;29.90;99.90
22526;DHT22;11429;50.842;4.386;2022-08-01T12:53:17;30.20;99.90
22526;DHT22;11429;50.842;4.386;2022-08-01T12:55:51;29.80;99.90
22526;DHT22;11429;50.842;4.386;2022-08-01T12:58:19;29.60;99.90
22526;DHT22;11429;50.842;4.386;2022-08-01T13:00:46;29.60;99.90
22526;DHT22;11429;50.842;4.386;2022-08-01T13:03:20;29.20;99.90
22526;DHT22;11429;50.842;4.386;2022-08-01T13:08:29;29.00;99.90
22526;DHT22;11429;50.842;4.386;2022-08-01T13:11:06;28.50;99.90
22526;DHT22;11429;50.842;4.386;2022-08-01T13:13:43;28.80;99.90
22526;DHT22;11429;50.842;4.386;2022-08-01T13:16:10;28.50;99.90
22526;DHT22;11429;50.842;4.386;2022-08-01T13:18:37;28.30;99.90
22526;DHT22;11429;50.842;4.386;2022-08-01T13:21:20;28.40;99.90
22526;DHT22;11429;50.842;4.386;2022-08-01T13:24:12;27.90;99.90
22526;DHT22;11429;50.842;4.386;2022-08-01T13:26:50;28.10;99.90
22526;DHT22;11429;50.842;4.386;2022-08-01T13:31:42;27.90;99.90
22526;DHT22;11429;50.842;4.386;2022-08-01T13:34:09;27.60;99.90
22526;DHT22;11429;50.842;4.386;2022-08-01T13:36:36;27.50;99.90
22526;DHT22;11429;50.842;4.386;2022-08-01T13:39:03;27.80;99.90
22526;DHT22;11429;50.842;4.386;2022-08-01T13:41:48;27.90;99.90
22526;DHT22;11429;50.842;4.386;2022-08-01T13:44:14;28.10;99.90
22526;DHT22;11429;50.842;4.386;2022-08-01T13:46:42;27.20;99.90
22526;DHT22;11429;50.842;4.386;2022-08-01T13:49:09;27.40;99.90
22526;DHT22;11429;50.842;4.386;2022-08-01T13:51:35;27.50;99.90
22526;DHT22;11429;50.842;4.386;2022-08-01T13:54:02;27.10;99.90
22526;DHT22;11429;50.842;4.386;2022-08-01T13:56:28;26.80;99.90
22526;DHT22;11429;50.842;4.386;2022-08-01T13:58:54;26.80;99.90
22526;DHT22;11429;50.842;4.386;2022-08-01T14:01:21;27.10;99.90
22526;DHT22;11429;50.842;4.386;2022-08-01T14:03:47;27.40;99.90
22526;DHT22;11429;50.842;4.386;2022-08-01T14:06:13;27.70;99.90
22526;DHT22;11429;50.842;4.386;2022-08-01T14:08:41;27.90;99.90
22526;DHT22;11429;50.842;4.386;2022-08-01T14:11:07;27.90;99.90
22526;DHT22;11429;50.842;4.386;2022-08-01T14:13:33;28.00;99.90
22526;DHT22;11429;50.842;4.386;2022-08-01T14:15:59;28.30;99.90
22526;DHT22;11429;50.842;4.386;2022-08-01T14:18:25;28.00;99.90
22526;DHT22;11429;50.842;4.386;2022-08-01T14:20:51;27.80;99.90
22526;DHT22;11429;50.842;4.386;2022-08-01T14:23:17;28.10;99.90
22526;DHT22;11429;50.842;4.386;2022-08-01T14:25:43;28.10;99.90
22526;DHT22;11429;50.842;4.386;2022-08-01T14:28:09;28.40;99.90
22526;DHT22;11429;50.842;4.386;2022-08-01T14:30:36;28.50;99.90
22526;DHT22;11429;50.842;4.386;2022-08-01T14:33:02;28.70;99.60
22526;DHT22;11429;50.842;4.386;2022-08-01T14:35:28;28.30;99.90
22526;DHT22;11429;50.842;4.386;2022-08-01T14:37:53;27.80;99.90
22526;DHT22;11429;50.842;4.386;2022-08-01T14:40:19;27.90;99.90
22526;DHT22;11429;50.842;4.386;2022-08-01T14:42:45;28.10;99.90
22526;DHT22;11429;50.842;4.386;2022-08-01T14:45:12;28.10;99.90
22526;DHT22;11429;50.842;4.386;2022-08-01T14:47:39;27.80;99.90
22526;DHT22;11429;50.842;4.386;2022-08-01T14:50:07;27.60;99.90
22526;DHT22;11429;50.842;4.386;2022-08-01T14:52:34;27.60;99.90
22526;DHT22;11429;50.842;4.386;2022-08-01T14:55:01;27.60;99.90
22526;DHT22;11429;50.842;4.386;2022-08-01T14:57:27;27.70;99.90
22526;DHT22;11429;50.842;4.386;2022-08-01T14:59:53;27.90;99.90
22526;DHT22;11429;50.842;4.386;2022-08-01T15:02:18;28.40;99.30
22526;DHT22;11429;50.842;4.386;2022-08-01T15:04:46;28.40;99.10
22526;DHT22;11429;50.842;4.386;2022-08-01T15:07:12;28.50;99.00
22526;DHT22;11429;50.842;4.386;2022-08-01T15:09:39;28.70;98.70
22526;DHT22;11429;50.842;4.386;2022-08-01T15:12:06;28.70;98.60
22526;DHT22;11429;50.842;4.386;2022-08-01T15:14:32;28.50;98.80
22526;DHT22;11429;50.842;4.386;2022-08-01T15:17:34;28.00;99.50
22526;DHT22;11429;50.842;4.386;2022-08-01T15:20:05;27.50;99.90
22526;DHT22;11429;50.842;4.386;2022-08-01T15:22:31;27.40;99.90
22526;DHT22;11429;50.842;4.386;2022-08-01T15:24:59;27.70;99.50
22526;DHT22;11429;50.842;4.386;2022-08-01T15:27:26;27.40;99.90
22526;DHT22;11429;50.842;4.386;2022-08-01T15:29:52;27.60;99.90
22526;DHT22;11429;50.842;4.386;2022-08-01T15:32:19;27.90;99.90
22526;DHT22;11429;50.842;4.386;2022-08-01T15:34:45;27.80;99.90
22526;DHT22;11429;50.842;4.386;2022-08-01T15:37:12;27.40;99.90
22526;DHT22;11429;50.842;4.386;2022-08-01T15:39:38;27.30;99.90
22526;DHT22;11429;50.842;4.386;2022-08-01T15:42:06;27.30;99.90
22526;DHT22;11429;50.842;4.386;2022-08-01T15:44:32;27.40;99.70
22526;DHT22;11429;50.842;4.386;2022-08-01T15:46:59;27.70;99.10
22526;DHT22;11429;50.842;4.386;2022-08-01T15:49:25;28.30;98.60
22526;DHT22;11429;50.842;4.386;2022-08-01T15:51:51;28.60;98.20
22526;DHT22;11429;50.842;4.386;2022-08-01T15:54:17;28.70;98.00
22526;DHT22;11429;50.842;4.386;2022-08-01T15:56:45;28.50;98.00
22526;DHT22;11429;50.842;4.386;2022-08-01T15:59:11;28.50;98.30
22526;DHT22;11429;50.842;4.386;2022-08-01T16:01:37;28.80;98.10
22526;DHT22;11429;50.842;4.386;2022-08-01T16:04:03;28.20;98.80
22526;DHT22;11429;50.842;4.386;2022-08-01T16:06:29;27.60;99.60
22526;DHT22;11429;50.842;4.386;2022-08-01T16:08:55;27.40;99.60
22526;DHT22;11429;50.842;4.386;2022-08-01T16:11:22;27.40;99.80
22526;DHT22;11429;50.842;4.386;2022-08-01T16:13:53;27.30;99.90